Time;durP1;ratioP1;P1;durP2;ratioP2;P2;SDS_P1;SDS_P2;PMS_P1;PMS_P2;Temp;Humidity;BMP_temperature;BMP_pressure;BME280_temperature;BME280_humidity;BME280_pressure;Samples;Min_cycle;Max_cycle;Signal;HPM_P1;HPM_P2
2022/09/26 00:02:08;;;;;;;8.55;2.17;;;;;;;;;;5026431;28;20144;-56
2022/09/26 00:04:34;;;;;;;6.43;2.10;;;;;;;;;;5026213;28;20063;-56
2022/09/26 00:07:00;;;;;;;7.68;2.13;;;;;;;;;;5026451;28;20562;-55
2022/09/26 00:09:27;;;;;;;5.32;2.38;;;;;;;;;;5026272;28;20045;-56
2022/09/26 00:11:53;;;;;;;9.93;2.25;;;;;;;;;;5025060;28;20076;-56
2022/09/26 00:14:21;;;;;;;3.78;2.28;;;;;;;;;;5025785;28;20612;-56
2022/09/26 00:16:48;;;;;;;5.43;1.75;;;;;;;;;;5023419;28;20077;-56
2022/09/26 00:19:14;;;;;;;6.60;2.08;;;;;;;;;;5006934;28;20045;-56
2022/09/26 00:21:40;;;;;;;3.42;1.67;;;;;;;;;;5025870;28;20137;-57
2022/09/26 00:24:06;;;;;;;8.95;2.13;;;;;;;;;;5025637;28;20041;-56
2022/09/26 00:26:34;;;;;;;5.68;1.92;;;;;;;;;;5008204;28;20045;-55
2022/09/26 00:29:03;;;;;;;6.40;1.90;;;;;;;;;;5025495;28;20045;-55
2022/09/26 00:31:31;;;;;;;7.55;2.00;;;;;;;;;;5021654;28;20144;-56
2022/09/26 00:33:57;;;;;;;3.22;1.55;;;;;;;;;;5024138;28;20045;-56
2022/09/26 00:36:24;;;;;;;5.32;2.05;;;;;;;;;;5023494;28;20041;-57
2022/09/26 00:38:50;;;;;;;3.75;1.42;;;;;;;;;;5023403;28;20045;-56
2022/09/26 00:41:16;;;;;;;7.38;2.05;;;;;;;;;;5024015;28;20120;-56
2022/09/26 00:43:45;;;;;;;4.90;1.23;;;;;;;;;;5022004;28;20045;-57
2022/09/26 00:46:15;;;;;;;5.00;1.67;;;;;;;;;;5006133;28;20415;-57
2022/09/26 00:48:43;;;;;;;5.38;1.45;;;;;;;;;;5023156;28;20122;-57
2022/09/26 00:51:09;;;;;;;5.93;1.52;;;;;;;;;;5023348;28;20070;-57
2022/09/26 00:53:38;;;;;;;5.97;1.30;;;;;;;;;;5023706;28;20426;-56
2022/09/26 00:56:05;;;;;;;;;;;;;;;;;;5024083;28;20095;-56
2022/09/26 00:58:37;;;;;;;5.57;1.45;;;;;;;;;;5022821;28;20452;-55
2022/09/26 01:01:04;;;;;;;5.05;1.27;;;;;;;;;;5023330;28;20045;-56
2022/09/26 01:03:31;;;;;;;4.70;1.33;;;;;;;;;;5023442;28;20049;-56
2022/09/26 01:05:58;;;;;;;5.90;2.05;;;;;;;;;;5021444;28;20096;-56
2022/09/26 01:08:30;;;;;;;5.93;1.25;;;;;;;;;;5019108;28;20519;-57
2022/09/26 01:10:57;;;;;;;2.60;1.33;;;;;;;;;;5023270;28;20061;-57
2022/09/26 01:13:24;;;;;;;6.15;1.35;;;;;;;;;;5021370;28;20045;-56
2022/09/26 01:15:50;;;;;;;6.10;1.10;;;;;;;;;;5023223;28;20141;-56
2022/09/26 01:18:16;;;;;;;5.20;1.13;;;;;;;;;;5023255;28;20466;-57
2022/09/26 01:20:52;;;;;;;7.38;1.30;;;;;;;;;;5023264;28;20559;-57
2022/09/26 01:23:42;;;;;;;4.00;1.15;;;;;;;;;;5022944;28;20049;-56
2022/09/26 01:26:24;;;;;;;9.77;2.03;;;;;;;;;;5022696;28;20306;-56
2022/09/26 01:28:51;;;;;;;4.22;1.20;;;;;;;;;;5022347;28;20123;-56
2022/09/26 01:31:33;;;;;;;2.95;1.13;;;;;;;;;;5023112;28;20399;-56
2022/09/26 01:34:06;;;;;;;5.10;1.40;;;;;;;;;;5021759;28;20120;-56
2022/09/26 01:36:45;;;;;;;5.50;1.55;;;;;;;;;;5023005;28;20076;-56
2022/09/26 01:39:11;;;;;;;;;;;;;;;;;;5023680;28;20107;-57
2022/09/26 01:41:43;;;;;;;7.68;1.30;;;;;;;;;;5022474;28;19921;-57
2022/09/26 01:44:19;;;;;;;4.68;1.40;;;;;;;;;;5022702;28;20715;-56
2022/09/26 01:46:50;;;;;;;7.10;1.52;;;;;;;;;;5022659;28;20724;-57
2022/09/26 01:49:17;;;;;;;3.20;1.10;;;;;;;;;;5022662;28;20041;-56
2022/09/26 01:51:48;;;;;;;5.57;1.70;;;;;;;;;;5022735;28;20083;-57
2022/09/26 01:54:19;;;;;;;3.55;1.20;;;;;;;;;;5023187;28;20049;-57
2022/09/26 01:56:46;;;;;;;4.70;1.42;;;;;;;;;;5022422;28;20052;-57
2022/09/26 01:59:17;;;;;;;6.78;1.52;;;;;;;;;;5005120;28;20042;-56
2022/09/26 02:01:44;;;;;;;5.97;1.60;;;;;;;;;;5022766;28;20563;-55
2022/09/26 02:04:13;;;;;;;6.32;1.50;;;;;;;;;;5022724;28;20055;-56
2022/09/26 02:06:43;;;;;;;7.28;1.80;;;;;;;;;;5021552;28;20436;-57
2022/09/26 02:09:12;;;;;;;7.65;1.55;;;;;;;;;;5022630;28;20052;-56
2022/09/26 02:11:40;;;;;;;8.50;1.80;;;;;;;;;;5021840;28;20053;-56
2022/09/26 02:14:10;;;;;;;2.78;1.40;;;;;;;;;;5022533;28;20149;-55
2022/09/26 02:16:39;;;;;;;8.13;2.00;;;;;;;;;;5005311;28;20057;-56
2022/09/26 02:19:09;;;;;;;5.60;1.85;;;;;;;;;;5074596;22;20047;-56
2022/09/26 02:21:35;;;;;;;5.82;1.70;;;;;;;;;;4983020;28;20418;-58
2022/09/26 02:24:02;;;;;;;6.45;1.85;;;;;;;;;;4983808;28;20504;-56
2022/09/26 02:26:28;;;;;;;8.25;1.90;;;;;;;;;;4987085;28;20049;-57
2022/09/26 02:28:55;;;;;;;4.78;1.80;;;;;;;;;;4986982;28;22094;-57
2022/09/26 02:31:23;;;;;;;5.03;2.08;;;;;;;;;;4987176;28;20049;-56
2022/09/26 02:33:49;;;;;;;3.97;1.57;;;;;;;;;;4987484;28;20105;-57
2022/09/26 02:36:16;;;;;;;7.22;2.08;;;;;;;;;;4987731;28;20050;-57
2022/09/26 02:38:42;;;;;;;5.47;1.80;;;;;;;;;;4986167;28;20046;-56
2022/09/26 02:41:12;;;;;;;8.70;2.40;;;;;;;;;;4986936;28;20039;-57
2022/09/26 02:43:38;;;;;;;7.88;1.98;;;;;;;;;;4985541;28;20038;-57
2022/09/26 02:46:11;;;;;;;5.47;2.33;;;;;;;;;;4987055;28;20744;-56
2022/09/26 02:48:38;;;;;;;5.93;2.55;;;;;;;;;;4986648;28;20507;-57
2022/09/26 02:51:16;;;;;;;8.80;2.17;;;;;;;;;;4987190;28;20508;-56
2022/09/26 02:53:42;;;;;;;8.95;2.10;;;;;;;;;;4986067;28;20042;-56
2022/09/26 02:56:16;;;;;;;10.00;2.90;;;;;;;;;;4986136;28;20451;-57
2022/09/26 02:58:51;;;;;;;9.75;2.42;;;;;;;;;;4986056;28;20520;-57
2022/09/26 03:01:26;;;;;;;9.02;2.70;;;;;;;;;;4989614;28;20046;-57
2022/09/26 03:03:55;;;;;;;5.38;2.58;;;;;;;;;;4986346;28;20104;-57
2022/09/26 03:06:25;;;;;;;5.57;2.90;;;;;;;;;;4984044;28;20255;-56
2022/09/26 03:08:53;;;;;;;5.68;2.60;;;;;;;;;;4985814;28;20058;-56
2022/09/26 03:11:20;;;;;;;;;;;;;;;;;;4985987;28;20812;-58
2022/09/26 03:13:46;;;;;;;6.13;3.08;;;;;;;;;;4986019;28;19969;-55
2022/09/26 03:16:13;;;;;;;8.70;3.30;;;;;;;;;;4968705;28;20105;-57
2022/09/26 03:18:45;;;;;;;13.63;4.05;;;;;;;;;;4985460;28;20058;-57
2022/09/26 03:21:13;;;;;;;7.43;3.72;;;;;;;;;;4985742;28;20073;-57
2022/09/26 03:23:39;;;;;;;;;;;;;;;;;;4987106;28;20104;-57
2022/09/26 03:26:10;;;;;;;5.63;3.00;;;;;;;;;;4968859;28;19926;-57
2022/09/26 03:28:36;;;;;;;6.97;3.10;;;;;;;;;;4986723;28;20045;-57
2022/09/26 03:31:02;;;;;;;12.10;3.53;;;;;;;;;;4985641;28;20046;-57
2022/09/26 03:33:28;;;;;;;5.90;3.42;;;;;;;;;;4986275;28;20058;-56
2022/09/26 03:35:54;;;;;;;8.45;3.45;;;;;;;;;;4984751;28;20046;-57
2022/09/26 03:38:21;;;;;;;6.45;3.60;;;;;;;;;;4985259;28;20047;-56
2022/09/26 03:40:47;;;;;;;10.98;4.45;;;;;;;;;;4985728;28;20049;-57
2022/09/26 03:43:13;;;;;;;8.40;3.67;;;;;;;;;;4984162;28;20048;-57
2022/09/26 03:45:39;;;;;;;6.80;3.88;;;;;;;;;;4985548;28;20133;-57
2022/09/26 03:48:06;;;;;;;10.60;3.72;;;;;;;;;;4985526;28;20627;-57
2022/09/26 03:50:32;;;;;;;8.13;3.50;;;;;;;;;;4986152;28;20042;-57
2022/09/26 03:52:59;;;;;;;10.10;3.55;;;;;;;;;;4986306;28;20042;-56
2022/09/26 03:55:26;;;;;;;10.82;3.63;;;;;;;;;;4985290;28;20149;-57
2022/09/26 03:57:52;;;;;;;8.82;3.17;;;;;;;;;;4984331;28;20042;-57
2022/09/26 04:00:18;;;;;;;8.65;3.58;;;;;;;;;;4985459;28;20045;-58
2022/09/26 04:02:44;;;;;;;7.30;3.67;;;;;;;;;;4987432;28;20284;-57
2022/09/26 04:05:10;;;;;;;8.00;4.03;;;;;;;;;;4967305;28;20054;-57
2022/09/26 04:07:36;;;;;;;8.25;3.80;;;;;;;;;;4984806;28;20093;-57
2022/09/26 04:10:03;;;;;;;11.25;3.75;;;;;;;;;;4985273;28;20569;-57
2022/09/26 04:12:29;;;;;;;14.32;4.15;;;;;;;;;;4986053;28;20399;-57
2022/09/26 04:14:55;;;;;;;7.72;4.28;;;;;;;;;;4967874;28;20046;-57
2022/09/26 04:17:21;;;;;;;7.85;4.03;;;;;;;;;;4984505;28;20122;-57
2022/09/26 04:19:47;;;;;;;6.40;3.97;;;;;;;;;;4988988;28;20074;-57
2022/09/26 04:22:13;;;;;;;7.95;4.57;;;;;;;;;;4986076;28;20054;-57
2022/09/26 04:24:40;;;;;;;7.95;4.55;;;;;;;;;;4985560;28;20034;-57
2022/09/26 04:27:07;;;;;;;7.68;4.38;;;;;;;;;;4985366;28;20045;-55
2022/09/26 04:29:33;;;;;;;9.38;4.35;;;;;;;;;;4984088;28;20782;-56
2022/09/26 04:32:00;;;;;;;8.43;4.63;;;;;;;;;;4984198;28;20049;-57
2022/09/26 04:34:26;;;;;;;9.68;4.40;;;;;;;;;;4985185;28;20129;-57
2022/09/26 04:36:52;;;;;;;10.73;4.15;;;;;;;;;;4988319;28;20272;-57
2022/09/26 04:39:18;;;;;;;11.27;4.75;;;;;;;;;;4968889;28;20061;-56
2022/09/26 04:41:44;;;;;;;9.40;4.50;;;;;;;;;;4985675;28;20104;-57
2022/09/26 04:44:11;;;;;;;8.82;4.40;;;;;;;;;;4986670;28;20101;-56
2022/09/26 04:46:37;;;;;;;10.20;4.95;;;;;;;;;;4984508;28;20093;-57
2022/09/26 04:49:04;;;;;;;11.85;4.22;;;;;;;;;;4986470;28;20039;-57
2022/09/26 04:51:31;;;;;;;11.65;5.18;;;;;;;;;;4987750;28;20042;-57
2022/09/26 04:53:57;;;;;;;10.85;5.25;;;;;;;;;;4970801;28;20049;-56
2022/09/26 04:56:24;;;;;;;8.18;5.20;;;;;;;;;;4985388;28;20050;-57
2022/09/26 04:58:53;;;;;;;8.40;4.95;;;;;;;;;;4986251;28;20042;-57
2022/09/26 05:01:19;;;;;;;;;;;;;;;;;;4985407;28;20389;-55
2022/09/26 05:03:45;;;;;;;16.65;5.53;;;;;;;;;;4986298;28;19923;-57
2022/09/26 05:06:12;;;;;;;10.43;5.13;;;;;;;;;;4987809;28;20382;-56
2022/09/26 05:08:40;;;;;;;13.05;5.40;;;;;;;;;;4986685;28;20046;-56
2022/09/26 05:11:07;;;;;;;13.02;5.50;;;;;;;;;;4985928;28;20065;-57
2022/09/26 05:13:34;;;;;;;11.38;5.20;;;;;;;;;;4986972;28;20045;-58
2022/09/26 05:16:01;;;;;;;13.32;5.75;;;;;;;;;;4985782;28;20148;-57
2022/09/26 05:18:28;;;;;;;12.10;5.25;;;;;;;;;;4986866;28;20054;-57
2022/09/26 05:20:55;;;;;;;11.50;5.50;;;;;;;;;;4985739;28;20133;-57
2022/09/26 05:26:19;;;;;;;17.35;5.78;;;;;;;;;;4985357;28;20105;-58
2022/09/26 05:28:54;;;;;;;11.43;5.45;;;;;;;;;;4986748;28;20081;-57
2022/09/26 05:31:22;;;;;;;15.70;6.05;;;;;;;;;;4984414;28;20052;-57
2022/09/26 05:33:50;;;;;;;12.43;5.80;;;;;;;;;;4987377;28;20046;-57
2022/09/26 05:36:17;;;;;;;11.45;5.53;;;;;;;;;;4987133;28;20050;-57
2022/09/26 05:38:44;;;;;;;13.90;6.53;;;;;;;;;;4987945;28;20047;-57
2022/09/26 05:41:10;;;;;;;9.40;5.03;;;;;;;;;;4984917;28;20050;-58
2022/09/26 05:43:36;;;;;;;11.45;5.05;;;;;;;;;;4985586;28;20093;-57
2022/09/26 05:46:05;;;;;;;14.52;5.90;;;;;;;;;;4985914;28;20061;-57
2022/09/26 05:48:31;;;;;;;;;;;;;;;;;;4985984;28;20054;-57
2022/09/26 05:51:02;;;;;;;11.13;5.50;;;;;;;;;;4968401;28;19944;-58
2022/09/26 05:53:29;;;;;;;10.38;5.07;;;;;;;;;;4986336;28;20496;-57
2022/09/26 05:55:55;;;;;;;11.02;5.40;;;;;;;;;;4984722;28;20841;-57
2022/09/26 05:58:21;;;;;;;8.63;5.13;;;;;;;;;;4986399;28;20042;-58
2022/09/26 06:00:47;;;;;;;16.77;5.60;;;;;;;;;;4989155;28;20049;-57
2022/09/26 06:03:14;;;;;;;9.52;5.15;;;;;;;;;;4989436;28;20050;-57
2022/09/26 06:05:41;;;;;;;13.90;5.68;;;;;;;;;;4989398;28;20049;-57
2022/09/26 06:08:08;;;;;;;9.50;5.20;;;;;;;;;;4989744;28;20038;-57
2022/09/26 06:10:34;;;;;;;9.90;5.07;;;;;;;;;;4989103;28;20053;-57
2022/09/26 06:13:01;;;;;;;9.88;4.65;;;;;;;;;;4986694;28;20034;-57
2022/09/26 06:15:28;;;;;;;9.32;5.18;;;;;;;;;;4985619;28;20419;-57
2022/09/26 06:17:59;;;;;;;13.98;5.72;;;;;;;;;;4989567;28;20925;-57
2022/09/26 06:20:25;;;;;;;9.55;5.05;;;;;;;;;;4989750;28;20065;-57
2022/09/26 06:22:54;;;;;;;11.15;5.38;;;;;;;;;;4989771;28;20152;-56
2022/09/26 06:25:20;;;;;;;9.45;5.10;;;;;;;;;;4989734;28;20133;-56
2022/09/26 06:27:47;;;;;;;9.75;4.05;;;;;;;;;;4988614;28;20042;-57
2022/09/26 06:30:14;;;;;;;10.63;4.90;;;;;;;;;;4989497;28;20043;-57
2022/09/26 06:32:40;;;;;;;12.85;4.78;;;;;;;;;;4989815;28;20129;-57
2022/09/26 06:35:07;;;;;;;10.27;5.00;;;;;;;;;;4991496;28;20120;-57
2022/09/26 06:37:33;;;;;;;11.27;4.70;;;;;;;;;;4991327;28;20046;-58
2022/09/26 06:39:59;;;;;;;8.13;4.72;;;;;;;;;;4989795;28;20048;-56
2022/09/26 06:42:25;;;;;;;11.68;4.65;;;;;;;;;;4993279;28;20045;-57
2022/09/26 06:44:52;;;;;;;9.02;4.63;;;;;;;;;;4989319;28;20508;-58
2022/09/26 06:47:18;;;;;;;12.75;4.68;;;;;;;;;;4994649;28;20481;-56
2022/09/26 06:49:47;;;;;;;11.13;4.13;;;;;;;;;;4990062;28;20065;-57
2022/09/26 06:52:14;;;;;;;9.60;3.85;;;;;;;;;;4991926;28;20054;-56
2022/09/26 06:54:40;;;;;;;12.23;4.30;;;;;;;;;;4990701;28;20092;-57
2022/09/26 06:57:06;;;;;;;8.82;3.85;;;;;;;;;;4989696;28;20042;-58
2022/09/26 06:59:32;;;;;;;8.95;4.25;;;;;;;;;;4993075;28;20042;-58
2022/09/26 07:01:59;;;;;;;6.38;3.67;;;;;;;;;;4989973;28;20045;-57
2022/09/26 07:04:26;;;;;;;12.55;4.10;;;;;;;;;;4995325;28;20072;-57
2022/09/26 07:06:52;;;;;;;11.60;4.10;;;;;;;;;;4990097;28;20105;-57
2022/09/26 07:09:19;;;;;;;12.45;4.20;;;;;;;;;;4991825;28;20648;-57
2022/09/26 07:11:46;;;;;;;9.05;3.85;;;;;;;;;;4988790;28;20053;-57
2022/09/26 07:14:16;;;;;;;6.47;4.07;;;;;;;;;;4990721;28;20042;-57
2022/09/26 07:16:43;;;;;;;6.82;3.33;;;;;;;;;;4996204;28;20680;-57
2022/09/26 07:19:11;;;;;;;8.63;3.67;;;;;;;;;;4988915;28;20077;-58
2022/09/26 07:21:37;;;;;;;6.47;3.17;;;;;;;;;;4991786;28;20050;-56
2022/09/26 07:24:03;;;;;;;12.05;3.70;;;;;;;;;;4990196;28;20134;-57
2022/09/26 07:26:30;;;;;;;9.57;3.50;;;;;;;;;;4992624;28;20045;-57
2022/09/26 07:28:56;;;;;;;13.55;3.83;;;;;;;;;;4990735;28;20117;-57
2022/09/26 07:31:22;;;;;;;8.68;3.22;;;;;;;;;;4988797;28;20061;-57
2022/09/26 07:33:48;;;;;;;8.60;3.58;;;;;;;;;;4991214;28;20137;-57
2022/09/26 07:36:14;;;;;;;9.75;3.17;;;;;;;;;;4989812;28;20086;-57
2022/09/26 07:38:42;;;;;;;12.90;3.83;;;;;;;;;;4992047;28;20038;-57
2022/09/26 07:41:10;;;;;;;10.05;3.30;;;;;;;;;;4989756;28;20764;-56
2022/09/26 07:43:36;;;;;;;6.50;3.50;;;;;;;;;;4989116;28;20101;-57
2022/09/26 07:51:32;;;;;;;10.98;3.67;;;;;;;;;;4991594;28;20046;-59
2022/09/26 07:53:58;;;;;;;8.55;3.30;;;;;;;;;;4991280;28;20381;-57
2022/09/26 07:56:24;;;;;;;9.13;3.03;;;;;;;;;;4991252;28;20450;-57
2022/09/26 07:58:51;;;;;;;6.18;3.00;;;;;;;;;;4991463;28;20100;-57
2022/09/26 08:01:17;;;;;;;9.48;3.17;;;;;;;;;;4988276;28;20042;-57
2022/09/26 08:03:46;;;;;;;7.05;3.05;;;;;;;;;;4990357;28;20077;-57
2022/09/26 08:06:16;;;;;;;5.53;3.10;;;;;;;;;;4988148;28;20334;-57
2022/09/26 08:08:42;;;;;;;6.78;3.10;;;;;;;;;;4990506;28;20074;-58
2022/09/26 08:11:14;;;;;;;7.38;3.20;;;;;;;;;;4990019;28;20093;-57
2022/09/26 08:13:42;;;;;;;9.85;3.10;;;;;;;;;;4984006;28;20114;-57
2022/09/26 08:16:08;;;;;;;5.47;2.70;;;;;;;;;;4984831;28;20536;-57
2022/09/26 08:18:34;;;;;;;7.43;3.17;;;;;;;;;;4983309;28;20065;-57
2022/09/26 08:21:02;;;;;;;7.53;2.58;;;;;;;;;;4984963;28;20138;-57
2022/09/26 08:23:28;;;;;;;8.52;3.40;;;;;;;;;;4985367;28;20073;-57
2022/09/26 08:25:55;;;;;;;5.88;3.00;;;;;;;;;;4982824;28;20052;-57
2022/09/26 08:28:21;;;;;;;6.20;3.08;;;;;;;;;;4976588;28;20050;-57
2022/09/26 08:30:47;;;;;;;9.73;3.42;;;;;;;;;;4983542;28;20054;-56
2022/09/26 08:33:13;;;;;;;5.43;2.95;;;;;;;;;;4983995;28;20042;-57
2022/09/26 08:35:40;;;;;;;7.88;4.10;;;;;;;;;;4985294;28;20046;-57
2022/09/26 08:38:06;;;;;;;7.47;2.90;;;;;;;;;;4984870;28;20045;-57
2022/09/26 08:40:37;;;;;;;6.38;3.17;;;;;;;;;;4983549;28;20066;-58
2022/09/26 08:43:29;;;;;;;7.88;2.55;;;;;;;;;;4984186;28;20050;-57
2022/09/26 08:48:54;;;;;;;8.45;2.55;;;;;;;;;;4984201;28;20046;-57
2022/09/26 08:51:24;;;;;;;6.95;3.03;;;;;;;;;;4983607;28;20439;-57
2022/09/26 08:53:57;;;;;;;7.32;2.50;;;;;;;;;;4984935;28;20070;-57
2022/09/26 08:56:29;;;;;;;5.57;2.53;;;;;;;;;;4983178;28;20393;-57
2022/09/26 08:58:57;;;;;;;7.97;2.83;;;;;;;;;;4983111;28;20532;-58
2022/09/26 09:01:30;;;;;;;6.13;2.80;;;;;;;;;;4985461;28;20046;-57
2022/09/26 09:04:05;;;;;;;5.03;2.75;;;;;;;;;;4985294;28;20378;-58
2022/09/26 09:06:32;;;;;;;7.63;2.72;;;;;;;;;;4985138;28;20076;-59
2022/09/26 09:08:58;;;;;;;9.63;3.10;;;;;;;;;;4984111;28;20046;-58
2022/09/26 09:11:24;;;;;;;6.93;2.53;;;;;;;;;;4982736;28;20042;-57
2022/09/26 09:13:55;;;;;;;6.10;2.15;;;;;;;;;;4984326;28;20050;-57
2022/09/26 09:16:32;;;;;;;6.03;2.42;;;;;;;;;;4985121;28;20763;-57
2022/09/26 09:19:02;;;;;;;9.05;2.75;;;;;;;;;;4985003;28;20492;-57
2022/09/26 09:21:28;;;;;;;10.48;2.95;;;;;;;;;;4983962;28;20104;-57
2022/09/26 09:24:06;;;;;;;5.18;2.33;;;;;;;;;;4977983;28;20038;-56
2022/09/26 09:26:36;;;;;;;10.37;3.00;;;;;;;;;;4986770;28;20046;-58
2022/09/26 09:29:25;;;;;;;10.93;2.45;;;;;;;;;;4982870;28;20069;-57
2022/09/26 09:31:52;;;;;;;15.27;3.17;;;;;;;;;;4981991;28;20042;-56
2022/09/26 09:34:26;;;;;;;7.38;2.58;;;;;;;;;;4985384;28;20045;-57
2022/09/26 09:36:55;;;;;;;6.53;3.05;;;;;;;;;;4987180;28;20641;-57
2022/09/26 09:39:27;;;;;;;7.40;2.83;;;;;;;;;;4987076;28;20043;-62
2022/09/26 09:41:56;;;;;;;10.13;2.92;;;;;;;;;;4986984;28;20050;-57
2022/09/26 09:44:35;;;;;;;9.23;3.30;;;;;;;;;;4987884;28;20054;-56
2022/09/26 09:47:01;;;;;;;13.63;3.47;;;;;;;;;;4986864;28;20121;-58
2022/09/26 09:49:28;;;;;;;12.15;3.63;;;;;;;;;;4987372;28;20104;-55
2022/09/26 09:51:57;;;;;;;8.70;3.10;;;;;;;;;;4970196;28;20049;-56
2022/09/26 09:54:27;;;;;;;11.20;4.45;;;;;;;;;;4987722;28;20117;-57
2022/09/26 09:57:11;;;;;;;6.10;3.15;;;;;;;;;;4986956;28;20046;-57
2022/09/26 09:59:51;;;;;;;13.40;3.53;;;;;;;;;;4985658;28;20042;-57
2022/09/26 10:02:23;;;;;;;10.77;4.40;;;;;;;;;;4987711;28;20050;-57
2022/09/26 10:04:55;;;;;;;10.85;3.40;;;;;;;;;;4984475;28;20046;-57
2022/09/26 10:07:21;;;;;;;10.70;3.20;;;;;;;;;;4987844;28;20243;-56
2022/09/26 10:09:50;;;;;;;8.57;3.40;;;;;;;;;;4987055;28;20038;-57
2022/09/26 10:12:18;;;;;;;9.48;3.50;;;;;;;;;;4968748;28;20559;-57
2022/09/26 10:14:48;;;;;;;6.38;2.95;;;;;;;;;;4976141;28;20408;-57
2022/09/26 10:17:16;;;;;;;12.07;3.60;;;;;;;;;;4985932;28;20050;-58
2022/09/26 10:19:43;;;;;;;9.43;3.65;;;;;;;;;;4987287;28;20062;-57
2022/09/26 10:22:16;;;;;;;5.93;3.38;;;;;;;;;;4987068;28;20459;-57
2022/09/26 10:24:44;;;;;;;5.35;2.95;;;;;;;;;;4986555;28;20030;-57
2022/09/26 10:27:21;;;;;;;7.88;3.63;;;;;;;;;;4988012;28;20145;-57
2022/09/26 10:29:55;;;;;;;13.20;3.47;;;;;;;;;;4986224;28;20117;-57
2022/09/26 10:32:21;;;;;;;9.05;3.55;;;;;;;;;;4985459;28;20057;-57
2022/09/26 10:35:02;;;;;;;29.52;3.78;;;;;;;;;;4986724;28;20038;-56
2022/09/26 10:37:29;;;;;;;7.90;3.75;;;;;;;;;;4986251;28;20093;-57
2022/09/26 10:42:46;;;;;;;6.50;2.90;;;;;;;;;;4986650;28;20068;-57
2022/09/26 10:45:17;;;;;;;7.00;3.70;;;;;;;;;;4988213;28;20042;-57
2022/09/26 10:47:45;;;;;;;8.23;3.50;;;;;;;;;;4986056;28;20125;-57
2022/09/26 10:50:13;;;;;;;10.23;3.25;;;;;;;;;;4986244;28;20061;-56
2022/09/26 10:52:42;;;;;;;5.75;3.70;;;;;;;;;;4984919;28;20042;-57
2022/09/26 10:55:11;;;;;;;8.63;3.47;;;;;;;;;;4987616;28;20085;-56
2022/09/26 10:57:44;;;;;;;7.72;3.42;;;;;;;;;;4971974;28;20657;-57
2022/09/26 11:00:31;;;;;;;8.45;3.22;;;;;;;;;;4985712;28;20038;-57
2022/09/26 11:02:57;;;;;;;10.88;3.58;;;;;;;;;;4986749;28;20153;-58
2022/09/26 11:08:09;;;;;;;9.32;3.17;;;;;;;;;;4986958;28;20050;-56
2022/09/26 11:10:40;;;;;;;9.65;4.15;;;;;;;;;;4983233;28;20050;-57
2022/09/26 11:13:15;;;;;;;5.30;3.45;;;;;;;;;;4984040;28;20046;-57
2022/09/26 11:15:52;;;;;;;12.43;3.92;;;;;;;;;;4984231;28;20046;-56
2022/09/26 11:18:20;;;;;;;12.25;3.47;;;;;;;;;;4970283;28;20058;-57
2022/09/26 11:20:50;;;;;;;16.38;4.32;;;;;;;;;;4985369;28;20050;-56
2022/09/26 11:23:21;;;;;;;7.75;4.03;;;;;;;;;;4982408;28;20050;-58
2022/09/26 11:26:15;;;;;;;6.95;3.47;;;;;;;;;;4983910;28;20085;-58
2022/09/26 11:28:44;;;;;;;12.15;4.20;;;;;;;;;;4991155;28;20508;-57
2022/09/26 11:31:15;;;;;;;9.88;3.67;;;;;;;;;;4986085;28;20089;-58
2022/09/26 11:33:44;;;;;;;6.22;3.38;;;;;;;;;;4984941;28;20468;-57
2022/09/26 11:36:16;;;;;;;8.77;3.95;;;;;;;;;;4988818;28;20476;-56
2022/09/26 11:38:46;;;;;;;6.10;3.58;;;;;;;;;;4987321;28;20467;-56
2022/09/26 11:41:35;;;;;;;7.38;3.80;;;;;;;;;;4987686;28;20046;-57
2022/09/26 11:44:15;;;;;;;8.93;3.75;;;;;;;;;;4987812;28;20041;-56
2022/09/26 11:46:51;;;;;;;10.48;3.85;;;;;;;;;;4988123;28;20054;-57
2022/09/26 11:49:17;;;;;;;8.00;3.65;;;;;;;;;;4988228;28;20506;-57
2022/09/26 11:51:59;;;;;;;10.98;3.97;;;;;;;;;;4988179;28;20048;-56
2022/09/26 11:54:32;;;;;;;6.85;3.55;;;;;;;;;;4988585;28;20053;-56
2022/09/26 11:57:07;;;;;;;13.43;3.55;;;;;;;;;;4987439;28;20682;-57
2022/09/26 11:59:55;;;;;;;7.00;4.32;;;;;;;;;;4987707;28;20150;-58
2022/09/26 12:02:30;;;;;;;8.40;3.92;;;;;;;;;;4988326;28;20432;-57
2022/09/26 12:04:59;;;;;;;7.10;3.60;;;;;;;;;;4985752;28;20046;-57
2022/09/26 12:07:33;;;;;;;10.63;4.18;;;;;;;;;;4987970;28;20081;-56
2022/09/26 12:10:07;;;;;;;6.45;3.85;;;;;;;;;;4984554;28;20121;-57
2022/09/26 12:12:58;;;;;;;4.97;3.53;;;;;;;;;;4987961;28;20503;-57
2022/09/26 12:15:31;;;;;;;9.52;3.63;;;;;;;;;;4988064;28;20125;-57
2022/09/26 12:18:12;;;;;;;7.38;3.88;;;;;;;;;;4970360;28;20058;-57
2022/09/26 12:20:46;;;;;;;5.63;3.67;;;;;;;;;;4987366;28;20066;-58
2022/09/26 12:23:18;;;;;;;11.30;3.35;;;;;;;;;;4987921;28;20085;-57
2022/09/26 12:26:04;;;;;;;7.22;3.38;;;;;;;;;;4986871;28;20080;-56
2022/09/26 12:28:46;;;;;;;6.88;3.17;;;;;;;;;;4989236;28;20054;-57
2022/09/26 12:31:19;;;;;;;8.25;3.78;;;;;;;;;;4985403;28;20075;-56
2022/09/26 12:33:45;;;;;;;11.43;3.15;;;;;;;;;;4988352;28;20050;-57
2022/09/26 12:36:20;;;;;;;9.18;3.30;;;;;;;;;;4991094;28;20034;-57
2022/09/26 12:38:55;;;;;;;5.93;3.20;;;;;;;;;;4990328;28;20117;-57
2022/09/26 12:41:37;;;;;;;5.18;3.30;;;;;;;;;;4990800;28;20483;-57
2022/09/26 12:44:04;;;;;;;5.28;2.85;;;;;;;;;;4990944;28;20038;-56
2022/09/26 12:46:49;;;;;;;3.08;2.30;;;;;;;;;;4988334;28;20045;-57
2022/09/26 12:49:25;;;;;;;5.03;2.72;;;;;;;;;;4986564;28;20081;-57
2022/09/26 12:51:53;;;;;;;6.90;2.60;;;;;;;;;;4987209;28;20126;-57
2022/09/26 12:54:21;;;;;;;8.63;2.72;;;;;;;;;;4972235;28;20161;-57
2022/09/26 12:56:53;;;;;;;12.27;3.08;;;;;;;;;;4987400;28;20046;-57
2022/09/26 12:59:31;;;;;;;7.45;2.63;;;;;;;;;;4993231;28;20441;-57
2022/09/26 13:02:09;;;;;;;5.30;2.00;;;;;;;;;;4988697;28;20117;-57
2022/09/26 13:04:54;;;;;;;5.78;2.28;;;;;;;;;;4986795;28;20038;-58
2022/09/26 13:07:28;;;;;;;4.63;2.17;;;;;;;;;;4988695;28;20049;-57
2022/09/26 13:10:05;;;;;;;5.88;1.98;;;;;;;;;;4988977;28;20511;-56
2022/09/26 13:12:49;;;;;;;5.53;2.03;;;;;;;;;;4986622;28;20404;-56
2022/09/26 13:15:21;;;;;;;8.80;2.78;;;;;;;;;;4985488;28;20415;-57
2022/09/26 13:17:51;;;;;;;4.85;2.05;;;;;;;;;;4984545;28;20073;-58
2022/09/26 13:20:21;;;;;;;3.28;2.03;;;;;;;;;;4986615;28;20058;-57
2022/09/26 13:22:53;;;;;;;5.60;2.00;;;;;;;;;;4986536;28;20136;-56
2022/09/26 13:25:43;;;;;;;15.13;1.90;;;;;;;;;;4985909;28;20081;-58
2022/09/26 13:28:13;;;;;;;4.97;1.73;;;;;;;;;;4989582;28;20100;-57
2022/09/26 13:30:41;;;;;;;7.07;1.58;;;;;;;;;;4987104;28;20046;-56
2022/09/26 13:33:13;;;;;;;3.58;1.45;;;;;;;;;;4985683;28;20038;-55
2022/09/26 13:35:42;;;;;;;5.45;2.00;;;;;;;;;;4984485;28;20049;-57
2022/09/26 13:38:15;;;;;;;10.60;1.80;;;;;;;;;;4985446;28;20058;-57
2022/09/26 13:41:00;;;;;;;5.82;1.95;;;;;;;;;;4985346;28;20046;-57
2022/09/26 13:43:42;;;;;;;2.72;1.58;;;;;;;;;;4986702;28;20073;-57
2022/09/26 13:46:09;;;;;;;6.72;2.00;;;;;;;;;;4985802;28;20042;-57
2022/09/26 13:48:41;;;;;;;2.35;1.42;;;;;;;;;;4985967;28;20101;-57
2022/09/26 13:51:19;;;;;;;6.75;1.85;;;;;;;;;;4985829;28;20069;-56
2022/09/26 13:53:54;;;;;;;9.80;2.10;;;;;;;;;;4982987;28;20046;-57
2022/09/26 13:56:30;;;;;;;6.82;2.55;;;;;;;;;;4984478;28;20527;-56
2022/09/26 13:59:03;;;;;;;4.82;1.80;;;;;;;;;;4985870;28;20070;-57
2022/09/26 14:01:29;;;;;;;3.60;2.00;;;;;;;;;;4986093;28;20043;-57
2022/09/26 14:04:16;;;;;;;3.03;1.50;;;;;;;;;;4985819;28;20042;-58
2022/09/26 14:07:01;;;;;;;5.70;1.90;;;;;;;;;;4983299;28;20465;-57
2022/09/26 14:09:39;;;;;;;4.47;2.08;;;;;;;;;;4984548;28;20042;-58
2022/09/26 14:12:18;;;;;;;6.82;1.98;;;;;;;;;;4985365;28;20050;-56
2022/09/26 14:14:48;;;;;;;2.75;2.08;;;;;;;;;;4984788;28;20050;-56
2022/09/26 14:17:52;;;;;;;8.88;2.03;;;;;;;;;;4985159;28;20057;-57
2022/09/26 14:20:22;;;;;;;3.58;1.92;;;;;;;;;;4987650;28;20046;-57
2022/09/26 14:22:50;;;;;;;4.22;1.90;;;;;;;;;;4988321;28;20039;-56
2022/09/26 14:25:36;;;;;;;4.55;1.92;;;;;;;;;;4971904;28;20050;-57
2022/09/26 14:28:16;;;;;;;5.07;2.05;;;;;;;;;;4992219;28;20046;-58
2022/09/26 14:31:02;;;;;;;3.47;1.98;;;;;;;;;;4989317;28;20488;-57
2022/09/26 14:33:28;;;;;;;2.70;1.88;;;;;;;;;;4989666;28;20117;-57
2022/09/26 14:36:14;;;;;;;5.65;1.95;;;;;;;;;;4989488;28;20046;-58
2022/09/26 14:38:40;;;;;;;3.60;1.88;;;;;;;;;;4988596;28;20057;-57
2022/09/26 14:41:16;;;;;;;3.60;2.20;;;;;;;;;;4988904;28;20053;-57
2022/09/26 14:43:42;;;;;;;3.63;2.13;;;;;;;;;;4988146;28;20038;-57
2022/09/26 14:46:16;;;;;;;5.07;2.28;;;;;;;;;;4987732;28;20123;-56
2022/09/26 14:48:43;;;;;;;5.03;2.60;;;;;;;;;;4988735;28;20045;-56
2022/09/26 14:51:10;;;;;;;10.55;2.50;;;;;;;;;;4986460;28;20078;-56
2022/09/26 14:53:39;;;;;;;3.53;2.28;;;;;;;;;;4986561;28;20042;-56
2022/09/26 14:56:08;;;;;;;4.97;2.65;;;;;;;;;;4984577;28;20046;-55
2022/09/26 14:58:36;;;;;;;4.47;2.95;;;;;;;;;;4989218;28;20050;-57
2022/09/26 15:01:04;;;;;;;5.93;2.97;;;;;;;;;;4989472;28;20078;-57
2022/09/26 15:03:30;;;;;;;;;;;;;;;;;;4990680;28;20432;-57
2022/09/26 15:05:58;;;;;;;5.97;2.83;;;;;;;;;;4986866;28;20004;-57
2022/09/26 15:08:24;;;;;;;7.90;3.20;;;;;;;;;;4987936;28;20043;-57
2022/09/26 15:10:51;;;;;;;5.53;3.13;;;;;;;;;;4986323;28;20057;-55
2022/09/26 15:13:17;;;;;;;5.10;2.97;;;;;;;;;;4987303;28;20102;-57
2022/09/26 15:15:44;;;;;;;6.00;3.30;;;;;;;;;;4987372;28;20064;-57
2022/09/26 15:18:23;;;;;;;5.68;3.08;;;;;;;;;;4986996;28;20492;-57